Time;durP1;ratioP1;P1;durP2;ratioP2;P2;SDS_P1;SDS_P2;PMS_P1;PMS_P2;Temp;Humidity;BMP_temperature;BMP_pressure;BME280_temperature;BME280_humidity;BME280_pressure;Samples;Min_cycle;Max_cycle;Signal;HPM_P1;HPM_P2
2021/10/22 00:01:18;;;;;;;5.27;1.37;;;9.20;99.90;;;;;;4420518;28;655454;-75
2021/10/22 00:04:05;;;;;;;5.23;1.20;;;9.20;99.90;;;;;;4420458;28;656124;-75
2021/10/22 00:06:53;;;;;;;3.17;1.10;;;9.10;99.90;;;;;;4433829;28;657171;-75
2021/10/22 00:09:40;;;;;;;4.77;0.93;;;9.10;99.90;;;;;;4415507;28;655997;-75
2021/10/22 00:12:28;;;;;;;8.13;1.30;;;9.20;99.90;;;;;;4437639;28;657345;-74
2021/10/22 00:15:15;;;;;;;3.07;1.23;;;9.30;99.90;;;;;;4419167;28;655102;-76
2021/10/22 00:18:05;;;;;;;8.47;1.40;;;9.30;99.90;;;;;;4435428;28;656360;-74
2021/10/22 00:20:52;;;;;;;2.60;1.00;;;9.30;99.90;;;;;;4418126;28;656322;-74
2021/10/22 00:23:40;;;;;;;3.23;0.97;;;9.30;99.90;;;;;;4443003;28;655091;-73
2021/10/22 00:26:27;;;;;;;5.20;0.97;;;9.40;99.90;;;;;;4414386;28;656824;-74
2021/10/22 00:29:15;;;;;;;3.30;0.90;;;9.50;99.90;;;;;;4435407;28;655491;-75
2021/10/22 00:32:02;;;;;;;2.97;1.07;;;9.50;99.90;;;;;;4412698;28;657799;-72
2021/10/22 00:34:52;;;;;;;5.30;1.23;;;9.70;99.90;;;;;;4435447;28;655470;-75
2021/10/22 00:37:39;;;;;;;2.63;1.20;;;9.70;99.90;;;;;;4443037;28;655912;-72
2021/10/22 00:40:27;;;;;;;2.17;0.93;;;9.70;99.90;;;;;;4417900;28;655499;-72
2021/10/22 00:43:16;;;;;;;5.37;0.93;;;9.80;99.90;;;;;;4432183;28;655734;-74
2021/10/22 00:46:03;;;;;;;2.30;0.77;;;9.80;99.90;;;;;;4440410;28;655480;-73
2021/10/22 00:48:52;;;;;;;2.73;0.90;;;9.90;99.90;;;;;;4415015;28;655332;-74
2021/10/22 00:51:41;;;;;;;3.73;1.23;;;9.90;99.90;;;;;;4444230;28;655494;-73
2021/10/22 00:54:28;;;;;;;2.83;0.97;;;9.80;99.90;;;;;;4402930;28;656080;-74
2021/10/22 00:57:16;;;;;;;4.63;1.50;;;9.90;99.90;;;;;;4420187;28;656849;-74
2021/10/22 01:00:03;;;;;;;5.00;1.20;;;9.90;99.90;;;;;;4441706;28;656518;-74
2021/10/22 01:02:51;;;;;;;3.60;0.90;;;9.80;99.90;;;;;;4417321;28;655469;-73
2021/10/22 01:05:38;;;;;;;6.03;1.17;;;9.90;99.90;;;;;;4439594;28;656468;-74
2021/10/22 01:08:28;;;;;;;4.03;1.00;;;9.90;99.90;;;;;;4419195;28;656828;-72
2021/10/22 01:11:15;;;;;;;3.33;0.90;;;9.80;99.90;;;;;;4428887;28;655513;-74
2021/10/22 01:14:03;;;;;;;3.13;1.10;;;9.80;99.90;;;;;;4434470;28;656278;-72
2021/10/22 01:16:51;;;;;;;5.37;1.60;;;9.90;99.90;;;;;;4419767;28;655334;-73
2021/10/22 01:19:38;;;;;;;2.27;1.03;;;9.80;99.90;;;;;;4439105;28;656911;-74
2021/10/22 01:22:27;;;;;;;6.00;1.00;;;9.80;99.90;;;;;;4422251;28;655961;-74
2021/10/22 01:25:16;;;;;;;5.43;1.20;;;9.80;99.90;;;;;;4438698;28;655587;-74
2021/10/22 01:28:04;;;;;;;1.73;0.80;;;9.80;99.90;;;;;;4419223;28;655903;-75
2021/10/22 01:30:52;;;;;;;4.90;1.00;;;9.70;99.90;;;;;;4419361;28;655707;-75
2021/10/22 01:33:40;;;;;;;4.53;1.10;;;9.70;99.90;;;;;;4441232;28;655081;-75
2021/10/22 01:36:27;;;;;;;5.73;1.37;;;9.70;99.90;;;;;;4419344;28;655682;-75
2021/10/22 01:39:17;;;;;;;3.00;1.30;;;9.60;99.90;;;;;;4437000;28;656578;-76
2021/10/22 01:42:05;;;;;;;2.43;0.93;;;9.60;99.90;;;;;;4436654;28;657295;-74
2021/10/22 01:44:52;;;;;;;6.50;0.97;;;9.60;99.90;;;;;;4416577;28;656726;-75
2021/10/22 01:47:40;;;;;;;5.20;1.23;;;9.60;99.90;;;;;;4441577;28;655591;-75
2021/10/22 01:50:28;;;;;;;3.93;1.20;;;9.60;99.90;;;;;;4419630;28;656592;-75
2021/10/22 01:53:17;;;;;;;8.23;1.30;;;9.60;99.90;;;;;;4418635;28;655434;-75
2021/10/22 01:56:06;;;;;;;4.70;1.30;;;9.60;99.90;;;;;;4426436;28;657621;-75
2021/10/22 01:58:53;;;;;;;3.53;1.30;;;9.60;99.90;;;;;;4414271;28;655718;-76
2021/10/22 02:01:41;;;;;;;5.93;1.23;;;9.60;99.90;;;;;;4422887;28;655428;-74
2021/10/22 02:04:28;;;;;;;6.37;1.53;;;9.60;99.90;;;;;;4439497;28;655277;-75
2021/10/22 02:07:16;;;;;;;4.77;1.33;;;9.60;99.90;;;;;;4415920;28;655317;-75
2021/10/22 02:10:04;;;;;;;3.23;1.30;;;9.60;99.90;;;;;;4442404;28;656281;-75
2021/10/22 02:12:53;;;;;;;4.67;1.20;;;9.60;99.90;;;;;;4421092;28;655847;-76
2021/10/22 02:15:40;;;;;;;3.85;1.10;;;9.70;99.90;;;;;;4426282;28;655786;-75
2021/10/22 02:18:28;;;;;;;5.27;1.20;;;9.80;99.90;;;;;;4441534;28;655371;-74
2021/10/22 02:21:15;;;;;;;4.30;1.10;;;9.80;99.90;;;;;;4416729;28;655631;-75
2021/10/22 02:24:03;;;;;;;3.53;1.00;;;9.80;99.90;;;;;;4440890;28;656231;-75
2021/10/22 02:26:51;;;;;;;3.47;1.27;;;9.80;99.90;;;;;;4419591;28;655197;-75
2021/10/22 02:29:39;;;;;;;2.57;1.17;;;9.80;99.90;;;;;;4444166;28;656078;-75
2021/10/22 02:32:27;;;;;;;5.87;1.37;;;9.80;99.90;;;;;;4419019;28;655205;-75
2021/10/22 02:35:15;;;;;;;5.03;1.55;;;9.80;99.90;;;;;;4440228;28;656045;-75
2021/10/22 02:38:02;;;;;;;6.47;1.40;;;9.80;99.90;;;;;;4415125;28;656438;-76
2021/10/22 02:40:50;;;;;;;7.57;1.57;;;9.70;99.90;;;;;;4436412;28;655497;-75
2021/10/22 02:43:38;;;;;;;4.43;1.33;;;9.70;99.90;;;;;;4441286;28;656696;-75
2021/10/22 02:46:27;;;;;;;3.63;1.30;;;9.70;99.90;;;;;;4418466;28;655234;-74
2021/10/22 02:49:14;;;;;;;5.25;1.52;;;9.60;99.90;;;;;;4440893;28;656081;-75
2021/10/22 02:52:02;;;;;;;3.70;1.20;;;9.60;99.90;;;;;;4421044;28;655869;-75
2021/10/22 02:54:50;;;;;;;10.63;1.53;;;9.60;99.90;;;;;;4426653;28;655363;-75
2021/10/22 02:57:37;;;;;;;2.20;1.10;;;9.60;99.90;;;;;;4410894;28;657882;-72
2021/10/22 03:00:25;;;;;;;5.33;1.43;;;9.60;99.90;;;;;;4440363;28;655308;-75
2021/10/22 03:03:14;;;;;;;6.07;1.30;;;9.60;99.90;;;;;;4438445;28;656045;-75
2021/10/22 03:06:02;;;;;;;4.47;1.10;;;9.50;99.90;;;;;;4418651;28;655967;-75
2021/10/22 03:08:49;;;;;;;3.53;1.17;;;9.50;99.90;;;;;;4438242;28;655819;-75
2021/10/22 03:11:37;;;;;;;3.97;1.07;;;9.50;99.90;;;;;;4419730;28;656010;-75
2021/10/22 03:14:24;;;;;;;2.57;0.93;;;9.40;99.90;;;;;;4436766;28;655558;-75
2021/10/22 03:17:12;;;;;;;1.63;0.80;;;9.40;99.90;;;;;;4420333;28;655747;-75
2021/10/22 03:20:01;;;;;;;2.13;1.00;;;9.40;99.90;;;;;;4435325;28;655783;-75
2021/10/22 03:22:48;;;;;;;4.80;0.60;;;9.30;99.90;;;;;;4415426;28;655797;-72
2021/10/22 03:25:36;;;;;;;2.27;0.80;;;9.30;99.90;;;;;;4418861;28;655197;-73
2021/10/22 03:28:23;;;;;;;2.83;0.88;;;9.20;99.90;;;;;;4438695;28;656529;-75
2021/10/22 03:31:13;;;;;;;2.20;0.80;;;9.10;99.90;;;;;;4415269;28;656107;-75
2021/10/22 03:34:01;;;;;;;1.83;1.00;;;9.10;99.90;;;;;;4426335;28;655628;-75
2021/10/22 03:36:52;;;;;;;5.97;1.20;;;8.90;99.90;;;;;;4437157;28;655995;-74
2021/10/22 03:39:43;;;;;;;6.40;1.30;;;8.90;99.90;;;;;;4415535;28;655844;-76
2021/10/22 03:42:32;;;;;;;4.87;1.30;;;8.70;99.90;;;;;;4392684;28;655756;-75
2021/10/22 03:45:20;;;;;;;2.27;1.30;;;8.60;99.90;;;;;;4439876;28;655453;-75
2021/10/22 03:48:09;;;;;;;2.07;1.20;;;8.50;99.90;;;;;;4418899;28;657330;-75
2021/10/22 03:50:58;;;;;;;5.10;1.20;;;8.40;99.90;;;;;;4421031;28;655410;-75
2021/10/22 03:53:50;;;;;;;1.30;0.90;;;8.30;99.90;;;;;;4425487;28;655356;-74
2021/10/22 03:56:39;;;;;;;1.40;0.60;;;8.20;99.90;;;;;;4420989;28;655857;-74
2021/10/22 03:59:27;;;;;;;5.27;1.00;;;8.10;99.90;;;;;;4419399;28;655556;-74
2021/10/22 04:02:14;;;;;;;0.97;0.80;;;8.10;99.90;;;;;;4438432;28;655487;-74
2021/10/22 04:05:05;;;;;;;2.57;1.00;;;8.00;99.90;;;;;;4415437;28;655312;-74
2021/10/22 04:07:52;;;;;;;3.57;1.23;;;7.90;99.90;;;;;;4424990;28;656233;-75
2021/10/22 04:10:43;;;;;;;3.63;1.10;;;7.80;99.90;;;;;;4440827;28;655726;-75
2021/10/22 04:13:30;;;;;;;3.93;1.10;;;7.80;99.90;;;;;;4406616;28;655924;-75
2021/10/22 04:16:18;;;;;;;2.03;1.13;;;7.70;99.90;;;;;;4437381;28;657263;-74
2021/10/22 04:19:06;;;;;;;4.57;1.20;;;7.70;99.90;;;;;;4423641;28;656940;-75
2021/10/22 04:21:54;;;;;;;2.23;1.20;;;7.60;99.90;;;;;;4441604;28;656369;-75
2021/10/22 04:24:42;;;;;;;3.43;1.50;;;7.50;99.90;;;;;;4418983;28;655667;-75
2021/10/22 04:27:40;;;;;;;2.60;1.30;;;7.40;99.90;;;;;;4432302;28;655523;-75
2021/10/22 04:30:34;;;;;;;6.27;1.60;;;7.30;99.90;;;;;;4393744;28;655594;-74
2021/10/22 04:33:23;;;;;;;3.83;1.67;;;7.30;99.90;;;;;;4414455;28;655757;-75
2021/10/22 04:36:13;;;;;;;5.30;2.10;;;7.30;99.90;;;;;;4428755;28;655624;-75
2021/10/22 04:42:15;;;;;;;5.97;2.03;;;7.10;99.90;;;;;;4416802;28;656293;-75
2021/10/22 04:45:12;;;;;;;7.37;2.60;;;7.20;99.90;;;;;;4392127;28;655999;-75
2021/10/22 04:48:01;;;;;;;8.10;2.03;;;7.10;99.90;;;;;;4416363;28;656091;-75
2021/10/22 04:50:50;;;;;;;6.17;2.40;;;7.00;99.90;;;;;;4421523;28;656020;-75
2021/10/22 04:53:38;;;;;;;6.20;2.40;;;7.00;99.90;;;;;;4418644;28;656088;-75
2021/10/22 04:56:26;;;;;;;6.00;2.17;;;6.90;99.90;;;;;;4420601;28;655196;-75
2021/10/22 04:59:13;;;;;;;7.70;2.30;;;6.80;99.90;;;;;;4442805;28;656018;-75
2021/10/22 05:02:02;;;;;;;6.17;2.40;;;6.70;99.90;;;;;;4424819;28;655992;-75
2021/10/22 05:04:50;;;;;;;6.67;2.27;;;6.60;99.90;;;;;;4436597;28;655639;-75
2021/10/22 05:07:38;;;;;;;8.07;2.23;;;6.50;99.90;;;;;;4442380;28;655925;-75
2021/10/22 05:10:26;;;;;;;3.08;1.70;;;6.40;99.90;;;;;;4418829;28;656704;-75
2021/10/22 05:13:14;;;;;;;4.20;1.90;;;6.40;99.90;;;;;;4439790;28;656573;-74
2021/10/22 05:16:02;;;;;;;5.13;1.87;;;6.30;99.90;;;;;;4416323;28;656019;-74
2021/10/22 05:18:51;;;;;;;8.87;2.13;;;6.30;99.90;;;;;;4438953;28;655606;-73
2021/10/22 05:21:39;;;;;;;3.90;1.93;;;6.20;1.00;;;;;;4415677;28;656018;-73
2021/10/22 05:24:26;;;;;;;5.23;2.10;;;6.20;1.00;;;;;;4417546;28;654338;-74
2021/10/22 05:27:14;;;;;;;7.03;1.90;;;6.20;1.00;;;;;;4442408;28;655279;-73
2021/10/22 05:30:01;;;;;;;5.20;1.90;;;6.20;1.00;;;;;;4420378;28;654444;-75
2021/10/22 05:32:49;;;;;;;3.47;1.70;;;6.30;1.00;;;;;;4439847;28;654137;-73
2021/10/22 05:35:38;;;;;;;3.60;1.60;;;6.40;1.00;;;;;;4418978;28;655362;-74
2021/10/22 05:38:26;;;;;;;7.30;2.22;;;6.40;1.00;;;;;;4419246;28;654922;-75
2021/10/22 05:41:14;;;;;;;5.97;2.43;;;6.50;1.00;;;;;;4448198;28;655847;-74
2021/10/22 05:44:01;;;;;;;8.40;1.93;;;6.40;99.90;;;;;;4416905;28;654659;-74
2021/10/22 05:46:50;;;;;;;5.37;2.10;;;6.50;99.90;;;;;;4445882;28;655909;-74
2021/10/22 05:49:37;;;;;;;5.77;2.03;;;6.50;99.90;;;;;;4411502;28;656326;-73
2021/10/22 05:52:26;;;;;;;4.30;1.93;;;6.50;99.90;;;;;;4443606;28;655282;-74
2021/10/22 05:55:13;;;;;;;8.90;1.90;;;6.60;99.90;;;;;;4419115;28;656743;-74
2021/10/22 05:58:01;;;;;;;12.20;2.23;;;6.60;99.90;;;;;;4413518;28;655189;-74
2021/10/22 06:00:50;;;;;;;7.90;2.10;;;6.70;99.90;;;;;;4431691;28;657153;-74
2021/10/22 06:03:38;;;;;;;7.73;2.30;;;6.80;99.90;;;;;;4416295;28;655781;-74
2021/10/22 06:06:26;;;;;;;11.07;2.20;;;6.90;99.90;;;;;;4446753;28;655454;-74
2021/10/22 06:09:15;;;;;;;6.33;1.83;;;7.00;99.90;;;;;;4445940;28;657019;-75
2021/10/22 06:12:03;;;;;;;5.07;1.67;;;7.10;99.90;;;;;;4406133;28;657401;-73
2021/10/22 06:17:53;;;;;;;5.83;1.77;;;7.20;99.90;;;;;;4404682;28;655571;-75
2021/10/22 06:20:47;;;;;;;4.33;1.70;;;7.20;99.90;;;;;;4410489;28;655546;-74
2021/10/22 06:26:42;;;;;;;5.60;1.50;;;7.20;99.90;;;;;;4404983;28;655334;-75
2021/10/22 06:29:31;;;;;;;2.67;1.40;;;7.10;99.90;;;;;;4402881;28;656183;-73
2021/10/22 06:32:18;;;;;;;7.03;1.80;;;7.10;99.90;;;;;;4399733;28;656432;-74
2021/10/22 06:35:07;;;;;;;5.17;1.50;;;7.20;99.90;;;;;;4404819;28;655619;-74
2021/10/22 06:37:55;;;;;;;6.87;1.77;;;7.20;99.90;;;;;;4427323;28;655395;-73
2021/10/22 06:40:43;;;;;;;2.10;1.03;;;7.10;99.90;;;;;;4406924;28;656039;-72
2021/10/22 06:43:32;;;;;;;9.27;1.85;;;7.00;99.90;;;;;;4408203;28;655531;-74
2021/10/22 06:46:21;;;;;;;7.97;1.90;;;7.00;99.90;;;;;;4421124;28;655766;-74
2021/10/22 06:49:08;;;;;;;4.17;1.63;;;6.90;99.90;;;;;;4431793;28;655828;-73
2021/10/22 06:51:56;;;;;;;7.87;1.83;;;6.90;99.90;;;;;;4404286;28;656071;-74
2021/10/22 06:54:44;;;;;;;8.70;2.35;;;7.00;99.90;;;;;;4420708;28;655876;-73
2021/10/22 06:57:31;;;;;;;8.50;2.73;;;7.10;99.90;;;;;;4407874;28;655834;-73
2021/10/22 07:00:20;;;;;;;5.33;2.60;;;7.30;99.90;;;;;;4420696;28;655321;-72
2021/10/22 07:03:15;;;;;;;8.83;2.97;;;7.50;99.90;;;;;;4400146;28;656375;-72
2021/10/22 07:07:14;;;;;;;8.73;3.20;;;7.60;99.90;;;;;;4375618;28;655917;-73
2021/10/22 07:09:11;;;;;;;7.60;2.90;;;7.70;99.90;;;;;;4376873;28;656444;-73
2021/10/22 07:11:59;;;;;;;7.70;2.83;;;7.90;99.90;;;;;;4432822;28;656388;-74
2021/10/22 07:14:53;;;;;;;7.47;2.50;;;8.10;99.90;;;;;;4420996;28;655970;-74
2021/10/22 07:17:42;;;;;;;6.27;2.70;;;8.10;99.90;;;;;;4398045;28;656018;-74
2021/10/22 07:20:30;;;;;;;5.33;2.20;;;8.10;99.90;;;;;;4442265;28;655845;-74
2021/10/22 07:23:18;;;;;;;9.47;2.60;;;8.10;99.90;;;;;;4424483;28;656068;-74
2021/10/22 07:26:06;;;;;;;10.60;2.38;;;8.00;99.90;;;;;;4427984;28;655553;-73
2021/10/22 07:28:53;;;;;;;8.97;2.80;;;8.00;99.90;;;;;;4439897;28;657337;-72
2021/10/22 07:31:41;;;;;;;5.43;2.13;;;8.00;99.90;;;;;;4419617;28;656066;-74
2021/10/22 07:34:30;;;;;;;8.20;2.37;;;8.10;99.90;;;;;;4441685;28;655669;-74
2021/10/22 07:37:18;;;;;;;4.53;1.73;;;8.10;99.90;;;;;;4416989;28;656808;-72
2021/10/22 07:40:07;;;;;;;4.00;1.40;;;8.10;99.90;;;;;;4427205;28;656429;-72
2021/10/22 07:42:55;;;;;;;5.87;1.80;;;8.10;99.90;;;;;;4452441;28;656698;-74
2021/10/22 07:45:43;;;;;;;6.63;2.33;;;8.30;99.90;;;;;;4422665;28;655835;-72
2021/10/22 07:48:31;;;;;;;2.73;1.43;;;8.40;99.90;;;;;;4431785;28;655201;-74
2021/10/22 07:51:20;;;;;;;4.80;1.27;;;8.70;99.90;;;;;;4447224;28;656256;-72
2021/10/22 07:54:08;;;;;;;6.63;2.07;;;8.80;99.90;;;;;;4425609;28;656071;-72
2021/10/22 07:56:56;;;;;;;5.13;1.60;;;8.90;99.90;;;;;;4426578;28;655466;-73
2021/10/22 07:59:43;;;;;;;7.33;1.37;;;8.80;99.90;;;;;;4446789;28;658374;-72
2021/10/22 08:02:31;;;;;;;6.40;1.43;;;8.80;99.90;;;;;;4425497;28;655733;-72
2021/10/22 08:05:19;;;;;;;3.17;1.23;;;8.90;99.90;;;;;;4437186;28;655778;-72
2021/10/22 08:08:08;;;;;;;5.27;1.23;;;8.90;99.90;;;;;;4417906;28;655396;-74
2021/10/22 08:10:56;;;;;;;8.70;1.93;;;8.90;99.90;;;;;;4419572;28;655977;-73
2021/10/22 08:13:45;;;;;;;3.33;1.30;;;8.90;99.90;;;;;;4443798;28;655723;-74
2021/10/22 08:16:32;;;;;;;9.63;1.30;;;9.00;99.90;;;;;;4419289;28;656503;-74
2021/10/22 08:19:21;;;;;;;3.83;1.20;;;9.30;99.90;;;;;;4428736;28;656203;-74
2021/10/22 08:22:27;;;;;;;5.63;1.40;;;9.30;99.90;;;;;;4455391;28;656199;-72
2021/10/22 08:25:17;;;;;;;5.87;1.33;;;9.50;99.90;;;;;;4444764;28;655940;-72
2021/10/22 08:28:05;;;;;;;5.97;1.20;;;9.40;99.90;;;;;;4438217;28;655666;-73
2021/10/22 08:30:59;;;;;;;6.20;1.20;;;9.30;99.90;;;;;;4410151;28;656626;-72
2021/10/22 08:33:46;;;;;;;3.47;1.10;;;9.50;99.90;;;;;;4420252;28;655971;-72
2021/10/22 08:36:34;;;;;;;5.77;1.13;;;9.60;99.90;;;;;;4439654;28;655435;-72
2021/10/22 08:39:22;;;;;;;4.20;0.90;;;9.60;99.90;;;;;;4422299;28;655720;-72
2021/10/22 08:42:11;;;;;;;9.47;1.80;;;9.50;99.90;;;;;;4445390;28;655236;-73
2021/10/22 08:44:59;;;;;;;6.30;1.40;;;9.70;99.90;;;;;;4416720;28;655445;-72
2021/10/22 08:47:47;;;;;;;5.57;1.03;;;9.80;99.90;;;;;;4420999;28;655636;-72
2021/10/22 08:50:35;;;;;;;8.20;1.42;;;10.00;99.90;;;;;;4440875;28;655267;-72
2021/10/22 08:53:23;;;;;;;5.37;1.27;;;10.10;99.90;;;;;;4418059;28;659052;-72
2021/10/22 08:56:11;;;;;;;7.33;1.37;;;10.20;99.90;;;;;;4419722;28;656492;-74
2021/10/22 08:59:00;;;;;;;7.67;1.37;;;10.30;99.90;;;;;;4441475;28;657684;-72
2021/10/22 09:02:13;;;;;;;4.17;1.20;;;10.50;99.90;;;;;;4417965;28;656913;-72
2021/10/22 09:05:13;;;;;;;5.03;1.30;;;10.30;99.90;;;;;;4406312;28;657610;-74
2021/10/22 09:08:05;;;;;;;4.80;0.97;;;10.30;99.90;;;;;;4405458;28;657904;-73
2021/10/22 09:10:52;;;;;;;5.33;1.40;;;10.40;99.90;;;;;;4422755;28;657044;-72
2021/10/22 09:13:41;;;;;;;6.40;0.80;;;10.50;99.90;;;;;;4430968;28;656912;-73
2021/10/22 09:16:31;;;;;;;8.03;1.10;;;10.60;99.90;;;;;;4443144;28;657292;-72
2021/10/22 09:19:28;;;;;;;5.47;1.03;;;10.70;99.90;;;;;;4414325;28;656686;-72
2021/10/22 09:22:28;;;;;;;5.90;1.30;;;11.10;99.90;;;;;;4394685;28;657065;-72
2021/10/22 09:25:18;;;;;;;5.77;0.97;;;11.50;99.90;;;;;;4400069;28;656410;-73
2021/10/22 09:28:06;;;;;;;3.50;1.10;;;11.10;99.90;;;;;;4423216;28;656486;-73
2021/10/22 09:30:54;;;;;;;7.77;1.13;;;11.20;99.40;;;;;;4441878;28;656463;-72
2021/10/22 09:33:52;;;;;;;2.70;0.90;;;11.10;98.90;;;;;;4423124;28;656569;-73
2021/10/22 09:36:41;;;;;;;4.10;1.10;;;11.10;98.90;;;;;;4416948;28;656364;-72
2021/10/22 09:39:33;;;;;;;4.40;1.10;;;11.10;99.80;;;;;;4403787;28;656622;-72
2021/10/22 09:42:21;;;;;;;6.90;1.23;;;11.20;97.60;;;;;;4398284;28;656928;-73
2021/10/22 09:45:09;;;;;;;4.27;1.23;;;11.50;97.00;;;;;;4437177;28;657000;-71
2021/10/22 09:47:58;;;;;;;4.33;1.30;;;11.40;94.10;;;;;;4413182;28;656844;-73
2021/10/22 09:50:47;;;;;;;5.63;1.27;;;11.30;94.30;;;;;;4416382;28;656528;-74
2021/10/22 09:53:36;;;;;;;5.80;1.33;;;11.70;95.40;;;;;;4440718;28;656414;-72
2021/10/22 09:56:25;;;;;;;8.77;1.30;;;12.00;95.50;;;;;;4417823;28;657220;-72
2021/10/22 09:59:23;;;;;;;7.47;1.30;;;12.10;93.30;;;;;;4416957;28;657052;-73
2021/10/22 10:02:11;;;;;;;3.73;1.10;;;11.80;92.00;;;;;;4401330;28;656716;-73
2021/10/22 10:04:59;;;;;;;2.57;0.80;;;11.80;93.10;;;;;;4439176;28;657131;-72
2021/10/22 10:07:48;;;;;;;5.23;1.27;;;12.00;91.20;;;;;;4414205;28;656413;-73
2021/10/22 10:10:36;;;;;;;4.17;0.93;;;12.10;90.60;;;;;;4420950;28;656481;-72
2021/10/22 10:13:23;;;;;;;8.60;0.87;;;11.60;89.30;;;;;;4439944;28;656919;-72
2021/10/22 10:16:11;;;;;;;3.57;0.87;;;11.60;88.70;;;;;;4421337;28;656995;-73
2021/10/22 10:19:05;;;;;;;8.93;1.03;;;11.60;85.70;;;;;;4433966;28;656428;-73
2021/10/22 10:21:54;;;;;;;2.60;0.80;;;11.50;88.40;;;;;;4415199;28;656518;-73
2021/10/22 10:24:46;;;;;;;2.73;0.83;;;11.70;88.00;;;;;;4416881;28;657348;-71
2021/10/22 10:27:44;;;;;;;8.57;1.00;;;11.90;84.60;;;;;;4413642;28;657313;-71
2021/10/22 10:30:32;;;;;;;4.97;0.87;;;12.00;85.40;;;;;;4384154;28;656843;-72
2021/10/22 10:33:33;;;;;;;4.27;0.60;;;12.00;86.20;;;;;;4428724;28;656157;-71
2021/10/22 10:36:45;;;;;;;3.53;0.80;;;12.20;83.10;;;;;;4393534;28;656362;-73
2021/10/22 10:39:55;;;;;;;1.93;0.57;;;11.80;83.50;;;;;;4411512;28;656967;-73
2021/10/22 10:42:49;;;;;;;3.33;0.80;;;11.60;85.60;;;;;;4385824;28;657395;-73
2021/10/22 10:45:43;;;;;;;2.73;0.70;;;12.00;86.00;;;;;;4399716;28;656948;-72
2021/10/22 10:48:38;;;;;;;5.05;1.00;;;12.30;84.70;;;;;;4390203;28;657640;-72
2021/10/22 10:51:35;;;;;;;7.23;1.47;;;12.40;86.50;;;;;;4397627;28;656689;-73
2021/10/22 10:54:27;;;;;;;3.60;1.00;;;12.80;87.60;;;;;;4413888;28;656597;-72
2021/10/22 10:57:25;;;;;;;8.73;1.43;;;12.80;84.40;;;;;;4437716;28;656895;-73
2021/10/22 11:00:15;;;;;;;7.20;1.10;;;13.10;88.70;;;;;;4387403;28;657035;-73
2021/10/22 11:03:19;;;;;;;10.93;1.90;;;12.60;90.10;;;;;;4414038;28;657547;-72
2021/10/22 11:06:07;;;;;;;7.00;1.67;;;12.70;89.80;;;;;;4415619;28;658115;-72
2021/10/22 11:08:54;;;;;;;2.83;0.87;;;12.10;90.20;;;;;;4435481;28;656995;-72
2021/10/22 11:11:42;;;;;;;3.60;1.27;;;11.70;88.80;;;;;;4412231;28;656752;-73
2021/10/22 11:14:41;;;;;;;5.83;1.13;;;11.40;90.50;;;;;;4440102;28;656463;-72
2021/10/22 11:17:30;;;;;;;4.57;1.10;;;11.40;91.50;;;;;;4415380;28;656919;-72
2021/10/22 11:20:18;;;;;;;6.33;1.40;;;11.90;92.90;;;;;;4410846;28;657221;-72
2021/10/22 11:23:05;;;;;;;3.50;0.93;;;12.50;92.30;;;;;;4418191;28;656628;-73
2021/10/22 11:25:56;;;;;;;9.93;1.07;;;12.50;89.60;;;;;;4432536;28;658313;-73
2021/10/22 11:28:44;;;;;;;5.03;1.17;;;12.60;90.10;;;;;;4412483;28;656865;-73
2021/10/22 11:31:39;;;;;;;5.60;1.10;;;13.00;89.80;;;;;;4422990;28;656797;-73
2021/10/22 11:34:29;;;;;;;4.93;1.17;;;13.40;89.10;;;;;;4391254;28;658302;-73
2021/10/22 11:37:22;;;;;;;5.20;1.53;;;13.00;90.10;;;;;;4416813;28;656170;-72
2021/10/22 11:40:14;;;;;;;5.97;1.30;;;13.00;90.10;;;;;;4436049;28;656667;-72
2021/10/22 11:43:07;;;;;;;3.58;0.90;;;12.90;90.00;;;;;;4419453;28;656385;-73
2021/10/22 11:45:55;;;;;;;7.23;1.10;;;12.90;90.00;;;;;;4415365;28;657565;-74
2021/10/22 11:48:42;;;;;;;4.73;1.10;;;12.70;90.20;;;;;;4417085;28;657764;-73
2021/10/22 11:51:31;;;;;;;10.93;1.20;;;13.30;90.90;;;;;;4436528;28;656508;-72
2021/10/22 11:54:19;;;;;;;3.47;0.80;;;13.40;88.70;;;;;;4409023;28;657519;-72
2021/10/22 11:57:09;;;;;;;5.87;0.77;;;13.30;85.90;;;;;;4418179;28;656685;-73
2021/10/22 11:59:58;;;;;;;6.47;1.20;;;12.80;83.90;;;;;;4417859;28;656954;-72
2021/10/22 12:02:46;;;;;;;2.27;0.80;;;12.80;86.30;;;;;;4426390;28;657087;-72
2021/10/22 12:05:33;;;;;;;3.93;1.10;;;12.60;84.70;;;;;;4422539;28;656998;-72
2021/10/22 12:08:23;;;;;;;5.93;1.07;;;12.20;84.90;;;;;;4418097;28;657363;-72
2021/10/22 12:11:10;;;;;;;3.20;0.90;;;12.10;86.80;;;;;;4425715;28;656423;-73
2021/10/22 12:13:58;;;;;;;5.90;1.00;;;12.80;87.10;;;;;;4438071;28;657476;-73
2021/10/22 12:16:46;;;;;;;3.53;1.17;;;13.30;81.30;;;;;;4417121;28;656646;-73
2021/10/22 12:19:33;;;;;;;4.00;1.33;;;13.50;80.70;;;;;;4441785;28;656835;-73
2021/10/22 12:22:26;;;;;;;3.23;0.67;;;13.70;84.20;;;;;;4416866;28;656816;-72
2021/10/22 12:25:20;;;;;;;3.33;0.90;;;13.10;79.00;;;;;;4418850;28;657447;-72
2021/10/22 12:28:13;;;;;;;2.87;1.10;;;12.80;80.60;;;;;;4395311;28;656878;-73
2021/10/22 12:31:10;;;;;;;3.60;0.80;;;12.90;78.80;;;;;;4401844;28;656563;-73
2021/10/22 12:34:06;;;;;;;2.40;1.20;;;12.40;81.10;;;;;;4394937;28;657144;-72
2021/10/22 12:37:06;;;;;;;6.20;1.10;;;12.20;81.20;;;;;;4411614;28;656986;-72
2021/10/22 12:39:54;;;;;;;3.90;0.93;;;12.20;82.30;;;;;;4416223;28;656785;-73
2021/10/22 12:42:44;;;;;;;5.53;1.10;;;12.10;82.50;;;;;;4419537;28;657153;-73
2021/10/22 12:45:31;;;;;;;2.00;0.90;;;12.10;80.40;;;;;;4420050;28;656661;-72
2021/10/22 12:48:23;;;;;;;3.33;1.00;;;12.50;81.80;;;;;;4441391;28;656255;-73
2021/10/22 12:51:12;;;;;;;3.33;0.73;;;13.50;76.50;;;;;;4397866;28;656984;-73
2021/10/22 12:54:00;;;;;;;4.40;1.07;;;14.70;71.10;;;;;;4437542;28;656731;-72
2021/10/22 12:56:55;;;;;;;6.50;1.10;;;15.50;70.50;;;;;;4413673;28;657061;-73
2021/10/22 12:59:44;;;;;;;2.13;0.90;;;16.20;66.10;;;;;;4393946;28;656983;-73
2021/10/22 13:02:32;;;;;;;2.67;0.73;;;17.30;62.20;;;;;;4414363;28;656162;-72
2021/10/22 13:05:21;;;;;;;5.70;1.27;;;17.90;58.80;;;;;;4438987;28;656146;-71
2021/10/22 13:11:31;;;;;;;2.57;1.07;;;18.60;56.10;;;;;;4391220;28;656647;-73
2021/10/22 13:14:40;;;;;;;3.80;0.93;;;18.70;52.80;;;;;;4412776;28;656881;-73
2021/10/22 13:20:38;;;;;;;5.50;1.10;;;16.70;54.60;;;;;;4413647;28;656477;-74
2021/10/22 13:23:26;;;;;;;1.87;1.00;;;17.50;56.80;;;;;;4422020;28;657698;-74
2021/10/22 13:26:13;;;;;;;2.40;0.80;;;18.50;54.30;;;;;;4442967;28;658292;-73
2021/10/22 13:29:01;;;;;;;8.03;1.43;;;18.80;52.10;;;;;;4418946;28;656903;-73
2021/10/22 13:31:50;;;;;;;3.57;1.20;;;17.70;52.90;;;;;;4439796;28;656938;-73
2021/10/22 13:34:39;;;;;;;5.57;1.30;;;17.80;53.70;;;;;;4400712;28;657741;-72
2021/10/22 13:37:27;;;;;;;2.63;0.80;;;18.30;52.00;;;;;;4420072;28;656869;-72
2021/10/22 13:40:14;;;;;;;5.37;0.80;;;17.70;52.40;;;;;;4439963;28;656568;-72
2021/10/22 13:43:02;;;;;;;1.23;0.80;;;18.20;52.20;;;;;;4420339;28;657398;-73
2021/10/22 13:45:50;;;;;;;3.07;0.63;;;17.00;54.00;;;;;;4437470;28;656352;-72
2021/10/22 13:48:39;;;;;;;9.10;1.43;;;16.20;54.80;;;;;;4417024;28;657430;-72
2021/10/22 13:51:28;;;;;;;4.13;1.17;;;16.60;55.00;;;;;;4419696;28;656656;-73
2021/10/22 13:54:16;;;;;;;1.33;0.87;;;16.80;55.90;;;;;;4416521;28;656231;-73
2021/10/22 13:57:05;;;;;;;3.57;0.87;;;17.50;54.40;;;;;;4447387;28;657062;-73
2021/10/22 13:59:53;;;;;;;3.07;1.13;;;17.90;52.40;;;;;;4424907;28;657602;-73
2021/10/22 14:02:41;;;;;;;3.43;1.27;;;18.40;54.70;;;;;;4433579;28;657097;-74
2021/10/22 14:05:28;;;;;;;4.13;1.30;;;18.10;52.60;;;;;;4445933;28;657051;-71
2021/10/22 14:08:17;;;;;;;3.53;1.00;;;17.90;52.30;;;;;;4419966;28;656532;-73
2021/10/22 14:11:07;;;;;;;5.53;1.20;;;16.80;52.90;;;;;;4443642;28;657278;-73
2021/10/22 14:13:59;;;;;;;6.60;1.20;;;15.60;56.90;;;;;;4423293;28;656260;-73
2021/10/22 14:16:58;;;;;;;6.70;1.40;;;15.60;56.40;;;;;;4392464;28;656989;-73
2021/10/22 14:20:03;;;;;;;6.78;1.30;;;15.50;57.00;;;;;;4395556;28;656304;-74
2021/10/22 14:23:22;;;;;;;5.30;1.20;;;15.90;56.30;;;;;;4396000;28;657164;-73
2021/10/22 14:29:17;;;;;;;3.30;1.30;;;18.20;50.70;;;;;;4393132;28;657430;-73
2021/10/22 14:32:05;;;;;;;6.53;1.10;;;18.30;50.40;;;;;;4438126;28;656817;-72
2021/10/22 14:34:58;;;;;;;6.43;1.10;;;16.60;50.30;;;;;;4414944;28;657381;-72
2021/10/22 14:37:46;;;;;;;2.97;1.20;;;15.50;53.20;;;;;;4397094;28;656588;-74
2021/10/22 14:40:35;;;;;;;4.90;1.23;;;14.10;54.70;;;;;;4437704;28;657058;-72
2021/10/22 14:43:29;;;;;;;5.25;1.40;;;12.90;57.80;;;;;;4417917;28;657698;-73
2021/10/22 14:46:26;;;;;;;5.00;1.47;;;13.40;59.40;;;;;;4413764;28;656625;-72
2021/10/22 14:49:18;;;;;;;7.43;1.33;;;15.00;56.60;;;;;;4410108;28;658025;-72
2021/10/22 14:52:16;;;;;;;4.97;1.37;;;16.00;53.40;;;;;;4395214;28;656481;-72
2021/10/22 14:55:13;;;;;;;2.67;1.10;;;16.60;52.40;;;;;;4414865;28;657197;-72
2021/10/22 14:58:01;;;;;;;4.17;1.50;;;14.80;54.10;;;;;;4390358;28;657527;-72